sensor_id;sensor_type;location;lat;lon;timestamp;P1;durP1;ratioP1;P2;durP2;ratioP2
18210;SDS011;9231;48.852;9.882;2023-04-03T00:00:18;2.50;;;2.30;;
18210;SDS011;9231;48.852;9.882;2023-04-03T00:02:45;3.97;;;2.20;;
18210;SDS011;9231;48.852;9.882;2023-04-03T00:05:11;3.33;;;2.53;;
18210;SDS011;9231;48.852;9.882;2023-04-03T00:07:38;2.40;;;2.17;;
18210;SDS011;9231;48.852;9.882;2023-04-03T00:10:06;2.53;;;2.00;;
18210;SDS011;9231;48.852;9.882;2023-04-03T00:12:33;2.87;;;2.20;;
18210;SDS011;9231;48.852;9.882;2023-04-03T00:14:59;2.40;;;1.97;;
18210;SDS011;9231;48.852;9.882;2023-04-03T00:17:26;3.97;;;2.10;;
18210;SDS011;9231;48.852;9.882;2023-04-03T00:19:52;2.90;;;2.10;;
18210;SDS011;9231;48.852;9.882;2023-04-03T00:22:19;2.80;;;2.30;;
18210;SDS011;9231;48.852;9.882;2023-04-03T00:24:45;2.27;;;1.87;;
18210;SDS011;9231;48.852;9.882;2023-04-03T00:27:13;3.33;;;1.90;;
18210;SDS011;9231;48.852;9.882;2023-04-03T00:29:41;2.90;;;2.00;;
18210;SDS011;9231;48.852;9.882;2023-04-03T00:32:09;2.67;;;2.20;;
18210;SDS011;9231;48.852;9.882;2023-04-03T00:34:35;2.83;;;2.20;;
18210;SDS011;9231;48.852;9.882;2023-04-03T00:37:02;3.10;;;2.10;;
18210;SDS011;9231;48.852;9.882;2023-04-03T00:39:28;2.57;;;2.03;;
18210;SDS011;9231;48.852;9.882;2023-04-03T00:41:55;2.60;;;1.80;;
18210;SDS011;9231;48.852;9.882;2023-04-03T00:47:05;2.87;;;2.30;;
18210;SDS011;9231;48.852;9.882;2023-04-03T00:49:33;2.77;;;2.30;;
18210;SDS011;9231;48.852;9.882;2023-04-03T00:51:59;2.83;;;1.93;;
18210;SDS011;9231;48.852;9.882;2023-04-03T00:54:26;2.60;;;2.20;;
18210;SDS011;9231;48.852;9.882;2023-04-03T00:56:53;1.97;;;1.73;;
18210;SDS011;9231;48.852;9.882;2023-04-03T00:59:21;5.17;;;1.87;;
18210;SDS011;9231;48.852;9.882;2023-04-03T01:01:50;3.17;;;2.37;;
18210;SDS011;9231;48.852;9.882;2023-04-03T01:04:27;2.77;;;1.83;;
18210;SDS011;9231;48.852;9.882;2023-04-03T01:06:54;1.90;;;1.70;;
18210;SDS011;9231;48.852;9.882;2023-04-03T01:09:21;7.60;;;3.10;;
18210;SDS011;9231;48.852;9.882;2023-04-03T01:11:48;2.93;;;1.90;;
18210;SDS011;9231;48.852;9.882;2023-04-03T01:14:17;2.53;;;2.33;;
18210;SDS011;9231;48.852;9.882;2023-04-03T01:16:50;2.93;;;1.77;;
18210;SDS011;9231;48.852;9.882;2023-04-03T01:19:17;2.70;;;1.80;;
18210;SDS011;9231;48.852;9.882;2023-04-03T01:21:53;2.33;;;1.80;;
18210;SDS011;9231;48.852;9.882;2023-04-03T01:24:31;2.00;;;1.70;;
18210;SDS011;9231;48.852;9.882;2023-04-03T01:26:58;2.10;;;1.83;;
18210;SDS011;9231;48.852;9.882;2023-04-03T01:29:25;2.47;;;1.70;;
18210;SDS011;9231;48.852;9.882;2023-04-03T01:31:53;2.13;;;1.73;;
18210;SDS011;9231;48.852;9.882;2023-04-03T01:34:20;2.93;;;1.77;;
18210;SDS011;9231;48.852;9.882;2023-04-03T01:36:47;4.03;;;1.90;;
18210;SDS011;9231;48.852;9.882;2023-04-03T01:39:14;3.27;;;1.87;;
18210;SDS011;9231;48.852;9.882;2023-04-03T01:41:40;2.30;;;1.70;;
18210;SDS011;9231;48.852;9.882;2023-04-03T01:44:07;1.90;;;1.67;;
18210;SDS011;9231;48.852;9.882;2023-04-03T01:46:33;2.40;;;1.57;;
18210;SDS011;9231;48.852;9.882;2023-04-03T01:49:01;2.20;;;1.63;;
18210;SDS011;9231;48.852;9.882;2023-04-03T01:51:28;2.13;;;1.73;;
18210;SDS011;9231;48.852;9.882;2023-04-03T01:53:55;2.20;;;1.77;;
18210;SDS011;9231;48.852;9.882;2023-04-03T01:56:21;2.57;;;1.60;;
18210;SDS011;9231;48.852;9.882;2023-04-03T01:58:48;3.70;;;1.83;;
18210;SDS011;9231;48.852;9.882;2023-04-03T02:01:14;5.47;;;1.80;;
18210;SDS011;9231;48.852;9.882;2023-04-03T02:03:41;3.23;;;1.80;;
18210;SDS011;9231;48.852;9.882;2023-04-03T02:06:09;4.20;;;1.90;;
18210;SDS011;9231;48.852;9.882;2023-04-03T02:08:35;2.10;;;1.60;;
18210;SDS011;9231;48.852;9.882;2023-04-03T02:11:02;3.23;;;1.63;;
18210;SDS011;9231;48.852;9.882;2023-04-03T02:13:28;2.00;;;1.80;;
18210;SDS011;9231;48.852;9.882;2023-04-03T02:15:54;2.13;;;1.60;;
18210;SDS011;9231;48.852;9.882;2023-04-03T02:18:21;2.07;;;1.60;;
18210;SDS011;9231;48.852;9.882;2023-04-03T02:20:47;3.97;;;1.73;;
18210;SDS011;9231;48.852;9.882;2023-04-03T02:23:15;2.03;;;1.77;;
18210;SDS011;9231;48.852;9.882;2023-04-03T02:25:41;1.80;;;1.50;;
18210;SDS011;9231;48.852;9.882;2023-04-03T02:28:10;2.40;;;1.70;;
18210;SDS011;9231;48.852;9.882;2023-04-03T02:30:36;2.27;;;1.70;;
18210;SDS011;9231;48.852;9.882;2023-04-03T02:33:03;2.73;;;1.60;;
18210;SDS011;9231;48.852;9.882;2023-04-03T02:35:29;2.37;;;1.70;;
18210;SDS011;9231;48.852;9.882;2023-04-03T02:37:56;2.67;;;1.30;;
18210;SDS011;9231;48.852;9.882;2023-04-03T02:40:23;2.00;;;1.53;;
18210;SDS011;9231;48.852;9.882;2023-04-03T02:42:50;2.20;;;1.60;;
18210;SDS011;9231;48.852;9.882;2023-04-03T02:45:16;2.23;;;1.40;;
18210;SDS011;9231;48.852;9.882;2023-04-03T02:47:43;2.93;;;1.60;;
18210;SDS011;9231;48.852;9.882;2023-04-03T02:50:09;2.10;;;1.30;;
18210;SDS011;9231;48.852;9.882;2023-04-03T02:52:36;2.20;;;1.83;;
18210;SDS011;9231;48.852;9.882;2023-04-03T02:55:02;4.23;;;1.60;;
18210;SDS011;9231;48.852;9.882;2023-04-03T02:57:30;2.80;;;1.60;;
18210;SDS011;9231;48.852;9.882;2023-04-03T02:59:57;2.00;;;1.57;;
18210;SDS011;9231;48.852;9.882;2023-04-03T03:02:23;4.43;;;2.03;;
18210;SDS011;9231;48.852;9.882;2023-04-03T03:04:51;1.63;;;1.50;;
18210;SDS011;9231;48.852;9.882;2023-04-03T03:07:17;1.97;;;1.50;;
18210;SDS011;9231;48.852;9.882;2023-04-03T03:09:43;2.97;;;1.70;;
18210;SDS011;9231;48.852;9.882;2023-04-03T03:12:10;1.97;;;1.87;;
18210;SDS011;9231;48.852;9.882;2023-04-03T03:14:38;3.97;;;1.63;;
18210;SDS011;9231;48.852;9.882;2023-04-03T03:17:04;1.83;;;1.50;;
18210;SDS011;9231;48.852;9.882;2023-04-03T03:19:30;2.13;;;1.50;;
18210;SDS011;9231;48.852;9.882;2023-04-03T03:21:57;2.63;;;1.63;;
18210;SDS011;9231;48.852;9.882;2023-04-03T03:24:23;2.90;;;1.47;;
18210;SDS011;9231;48.852;9.882;2023-04-03T03:26:50;1.53;;;1.43;;
18210;SDS011;9231;48.852;9.882;2023-04-03T03:29:16;2.53;;;1.70;;
18210;SDS011;9231;48.852;9.882;2023-04-03T03:31:44;3.67;;;1.97;;
18210;SDS011;9231;48.852;9.882;2023-04-03T03:34:11;2.70;;;1.63;;
18210;SDS011;9231;48.852;9.882;2023-04-03T03:36:38;1.57;;;1.47;;
18210;SDS011;9231;48.852;9.882;2023-04-03T03:39:04;2.17;;;1.70;;
18210;SDS011;9231;48.852;9.882;2023-04-03T03:41:31;2.87;;;1.67;;
18210;SDS011;9231;48.852;9.882;2023-04-03T03:43:57;1.53;;;1.23;;
18210;SDS011;9231;48.852;9.882;2023-04-03T03:46:24;1.63;;;1.50;;
18210;SDS011;9231;48.852;9.882;2023-04-03T03:48:52;1.70;;;1.30;;
18210;SDS011;9231;48.852;9.882;2023-04-03T03:51:18;2.77;;;1.60;;
18210;SDS011;9231;48.852;9.882;2023-04-03T03:53:44;1.70;;;1.57;;
18210;SDS011;9231;48.852;9.882;2023-04-03T03:56:11;2.87;;;1.40;;
18210;SDS011;9231;48.852;9.882;2023-04-03T03:58:37;2.83;;;1.40;;
18210;SDS011;9231;48.852;9.882;2023-04-03T04:01:04;2.33;;;1.53;;
18210;SDS011;9231;48.852;9.882;2023-04-03T04:03:31;4.00;;;2.00;;
18210;SDS011;9231;48.852;9.882;2023-04-03T04:05:59;2.57;;;1.40;;
18210;SDS011;9231;48.852;9.882;2023-04-03T04:08:26;3.93;;;1.87;;
18210;SDS011;9231;48.852;9.882;2023-04-03T04:10:52;2.60;;;1.40;;
18210;SDS011;9231;48.852;9.882;2023-04-03T04:13:19;2.43;;;1.70;;
18210;SDS011;9231;48.852;9.882;2023-04-03T04:15:45;2.20;;;1.40;;
18210;SDS011;9231;48.852;9.882;2023-04-03T04:18:12;2.37;;;1.30;;
18210;SDS011;9231;48.852;9.882;2023-04-03T04:20:38;2.93;;;1.70;;
18210;SDS011;9231;48.852;9.882;2023-04-03T04:23:06;3.20;;;1.40;;
18210;SDS011;9231;48.852;9.882;2023-04-03T04:25:32;2.40;;;1.30;;
18210;SDS011;9231;48.852;9.882;2023-04-03T04:27:59;1.60;;;1.50;;
18210;SDS011;9231;48.852;9.882;2023-04-03T04:30:25;1.67;;;1.30;;
18210;SDS011;9231;48.852;9.882;2023-04-03T04:32:52;2.00;;;1.10;;
18210;SDS011;9231;48.852;9.882;2023-04-03T04:35:18;1.73;;;1.40;;
18210;SDS011;9231;48.852;9.882;2023-04-03T04:37:45;1.57;;;1.40;;
18210;SDS011;9231;48.852;9.882;2023-04-03T04:40:13;1.97;;;1.40;;
18210;SDS011;9231;48.852;9.882;2023-04-03T04:42:39;2.63;;;1.50;;
18210;SDS011;9231;48.852;9.882;2023-04-03T04:45:06;2.90;;;1.50;;
18210;SDS011;9231;48.852;9.882;2023-04-03T04:47:33;2.00;;;1.63;;
18210;SDS011;9231;48.852;9.882;2023-04-03T04:49:59;1.53;;;1.43;;
18210;SDS011;9231;48.852;9.882;2023-04-03T04:52:26;2.53;;;1.87;;
18210;SDS011;9231;48.852;9.882;2023-04-03T04:54:52;3.47;;;1.90;;
18210;SDS011;9231;48.852;9.882;2023-04-03T04:57:20;1.60;;;1.43;;
18210;SDS011;9231;48.852;9.882;2023-04-03T04:59:46;2.20;;;1.87;;
18210;SDS011;9231;48.852;9.882;2023-04-03T05:02:13;3.73;;;1.93;;
18210;SDS011;9231;48.852;9.882;2023-04-03T05:04:39;3.83;;;1.73;;
18210;SDS011;9231;48.852;9.882;2023-04-03T05:07:06;2.10;;;1.73;;
18210;SDS011;9231;48.852;9.882;2023-04-03T05:09:32;2.70;;;1.70;;
18210;SDS011;9231;48.852;9.882;2023-04-03T05:11:59;2.37;;;1.80;;
18210;SDS011;9231;48.852;9.882;2023-04-03T05:14:26;2.23;;;2.00;;
18210;SDS011;9231;48.852;9.882;2023-04-03T05:16:53;2.60;;;1.50;;
18210;SDS011;9231;48.852;9.882;2023-04-03T05:19:19;3.88;;;2.28;;
18210;SDS011;9231;48.852;9.882;2023-04-03T05:21:46;3.43;;;1.90;;
18210;SDS011;9231;48.852;9.882;2023-04-03T05:24:13;2.60;;;1.80;;
18210;SDS011;9231;48.852;9.882;2023-04-03T05:26:39;2.90;;;1.87;;
18210;SDS011;9231;48.852;9.882;2023-04-03T05:29:06;2.70;;;1.50;;
18210;SDS011;9231;48.852;9.882;2023-04-03T05:31:34;2.43;;;1.80;;
18210;SDS011;9231;48.852;9.882;2023-04-03T05:34:01;1.77;;;1.37;;
18210;SDS011;9231;48.852;9.882;2023-04-03T05:36:27;3.50;;;1.63;;
18210;SDS011;9231;48.852;9.882;2023-04-03T05:38:53;1.83;;;1.60;;
18210;SDS011;9231;48.852;9.882;2023-04-03T05:41:21;2.00;;;1.53;;
18210;SDS011;9231;48.852;9.882;2023-04-03T05:43:48;3.53;;;1.73;;
18210;SDS011;9231;48.852;9.882;2023-04-03T05:46:15;2.30;;;1.70;;
18210;SDS011;9231;48.852;9.882;2023-04-03T05:48:43;1.97;;;1.67;;
18210;SDS011;9231;48.852;9.882;2023-04-03T05:51:14;1.90;;;1.70;;
18210;SDS011;9231;48.852;9.882;2023-04-03T05:53:41;1.93;;;1.73;;
18210;SDS011;9231;48.852;9.882;2023-04-03T05:56:09;3.90;;;2.10;;
18210;SDS011;9231;48.852;9.882;2023-04-03T05:58:35;5.27;;;1.90;;
18210;SDS011;9231;48.852;9.882;2023-04-03T06:01:02;4.50;;;1.80;;
18210;SDS011;9231;48.852;9.882;2023-04-03T06:03:29;4.33;;;1.90;;
18210;SDS011;9231;48.852;9.882;2023-04-03T06:05:57;1.70;;;1.60;;
18210;SDS011;9231;48.852;9.882;2023-04-03T06:08:24;2.83;;;1.60;;
18210;SDS011;9231;48.852;9.882;2023-04-03T06:10:51;4.03;;;2.17;;
18210;SDS011;9231;48.852;9.882;2023-04-03T06:13:17;6.10;;;1.80;;
18210;SDS011;9231;48.852;9.882;2023-04-03T06:15:44;2.27;;;1.77;;
18210;SDS011;9231;48.852;9.882;2023-04-03T06:18:11;4.00;;;2.00;;
18210;SDS011;9231;48.852;9.882;2023-04-03T06:20:38;6.40;;;1.93;;
18210;SDS011;9231;48.852;9.882;2023-04-03T06:23:06;2.83;;;1.50;;
18210;SDS011;9231;48.852;9.882;2023-04-03T06:25:32;5.27;;;1.70;;
18210;SDS011;9231;48.852;9.882;2023-04-03T06:27:59;3.23;;;1.60;;
18210;SDS011;9231;48.852;9.882;2023-04-03T06:30:26;3.93;;;1.70;;
18210;SDS011;9231;48.852;9.882;2023-04-03T06:32:52;2.23;;;1.67;;
18210;SDS011;9231;48.852;9.882;2023-04-03T06:35:18;4.03;;;1.73;;
18210;SDS011;9231;48.852;9.882;2023-04-03T06:37:46;2.47;;;1.63;;
18210;SDS011;9231;48.852;9.882;2023-04-03T06:40:15;3.37;;;1.77;;
18210;SDS011;9231;48.852;9.882;2023-04-03T06:42:44;2.10;;;1.90;;
18210;SDS011;9231;48.852;9.882;2023-04-03T06:45:10;3.00;;;1.70;;
18210;SDS011;9231;48.852;9.882;2023-04-03T06:47:37;4.43;;;1.97;;
18210;SDS011;9231;48.852;9.882;2023-04-03T06:50:04;2.63;;;1.70;;
18210;SDS011;9231;48.852;9.882;2023-04-03T06:52:31;3.03;;;2.00;;
18210;SDS011;9231;48.852;9.882;2023-04-03T06:54:58;3.33;;;2.00;;
18210;SDS011;9231;48.852;9.882;2023-04-03T06:57:26;3.67;;;1.87;;
18210;SDS011;9231;48.852;9.882;2023-04-03T06:59:53;3.27;;;2.03;;
18210;SDS011;9231;48.852;9.882;2023-04-03T07:02:19;4.00;;;2.40;;
18210;SDS011;9231;48.852;9.882;2023-04-03T07:04:46;2.77;;;1.77;;
18210;SDS011;9231;48.852;9.882;2023-04-03T07:07:13;3.87;;;2.17;;
18210;SDS011;9231;48.852;9.882;2023-04-03T07:09:40;3.17;;;1.90;;
18210;SDS011;9231;48.852;9.882;2023-04-03T07:12:07;1.70;;;1.60;;
18210;SDS011;9231;48.852;9.882;2023-04-03T07:14:35;7.63;;;2.30;;
18210;SDS011;9231;48.852;9.882;2023-04-03T07:17:02;4.63;;;2.17;;
18210;SDS011;9231;48.852;9.882;2023-04-03T07:19:28;3.67;;;1.80;;
18210;SDS011;9231;48.852;9.882;2023-04-03T07:21:55;2.57;;;1.63;;
18210;SDS011;9231;48.852;9.882;2023-04-03T07:24:21;3.17;;;2.00;;
18210;SDS011;9231;48.852;9.882;2023-04-03T07:26:49;4.07;;;2.27;;
18210;SDS011;9231;48.852;9.882;2023-04-03T07:29:15;2.73;;;1.97;;
18210;SDS011;9231;48.852;9.882;2023-04-03T07:31:43;4.10;;;1.80;;
18210;SDS011;9231;48.852;9.882;2023-04-03T07:34:09;2.47;;;2.20;;
18210;SDS011;9231;48.852;9.882;2023-04-03T07:36:36;7.07;;;2.50;;
18210;SDS011;9231;48.852;9.882;2023-04-03T07:39:02;4.13;;;1.97;;
18210;SDS011;9231;48.852;9.882;2023-04-03T07:41:29;3.73;;;2.40;;
18210;SDS011;9231;48.852;9.882;2023-04-03T07:43:56;2.37;;;1.93;;
18210;SDS011;9231;48.852;9.882;2023-04-03T07:46:22;2.43;;;1.77;;
18210;SDS011;9231;48.852;9.882;2023-04-03T07:48:50;2.77;;;1.87;;
18210;SDS011;9231;48.852;9.882;2023-04-03T07:51:16;3.97;;;1.93;;
18210;SDS011;9231;48.852;9.882;2023-04-03T07:53:56;3.43;;;2.33;;
18210;SDS011;9231;48.852;9.882;2023-04-03T07:56:30;3.57;;;1.97;;
18210;SDS011;9231;48.852;9.882;2023-04-03T07:58:57;5.60;;;2.03;;
18210;SDS011;9231;48.852;9.882;2023-04-03T08:01:23;3.77;;;2.07;;
18210;SDS011;9231;48.852;9.882;2023-04-03T08:03:51;4.23;;;2.07;;
18210;SDS011;9231;48.852;9.882;2023-04-03T08:06:18;4.33;;;2.13;;
18210;SDS011;9231;48.852;9.882;2023-04-03T08:08:45;5.77;;;2.03;;
18210;SDS011;9231;48.852;9.882;2023-04-03T08:11:12;4.87;;;1.93;;
18210;SDS011;9231;48.852;9.882;2023-04-03T08:13:39;3.00;;;2.47;;
18210;SDS011;9231;48.852;9.882;2023-04-03T08:16:10;3.23;;;2.03;;
18210;SDS011;9231;48.852;9.882;2023-04-03T08:18:42;4.93;;;2.00;;
18210;SDS011;9231;48.852;9.882;2023-04-03T08:21:20;3.50;;;2.17;;
18210;SDS011;9231;48.852;9.882;2023-04-03T08:23:51;5.27;;;2.10;;
18210;SDS011;9231;48.852;9.882;2023-04-03T08:26:21;6.10;;;1.93;;
18210;SDS011;9231;48.852;9.882;2023-04-03T08:28:51;3.37;;;2.00;;
18210;SDS011;9231;48.852;9.882;2023-04-03T08:31:19;5.20;;;2.20;;
18210;SDS011;9231;48.852;9.882;2023-04-03T08:33:45;3.27;;;2.00;;
18210;SDS011;9231;48.852;9.882;2023-04-03T08:36:18;4.27;;;1.97;;
18210;SDS011;9231;48.852;9.882;2023-04-03T08:38:45;4.93;;;2.00;;
18210;SDS011;9231;48.852;9.882;2023-04-03T08:41:14;2.50;;;1.70;;
18210;SDS011;9231;48.852;9.882;2023-04-03T08:43:46;6.10;;;2.00;;
18210;SDS011;9231;48.852;9.882;2023-04-03T08:46:18;4.13;;;2.00;;
18210;SDS011;9231;48.852;9.882;2023-04-03T08:48:47;3.00;;;2.03;;
18210;SDS011;9231;48.852;9.882;2023-04-03T08:51:15;3.90;;;1.80;;
18210;SDS011;9231;48.852;9.882;2023-04-03T08:53:45;5.10;;;2.07;;
18210;SDS011;9231;48.852;9.882;2023-04-03T08:56:16;2.67;;;1.70;;
18210;SDS011;9231;48.852;9.882;2023-04-03T08:58:45;2.87;;;1.90;;
18210;SDS011;9231;48.852;9.882;2023-04-03T09:01:16;3.10;;;1.63;;
18210;SDS011;9231;48.852;9.882;2023-04-03T09:03:43;2.17;;;1.40;;
18210;SDS011;9231;48.852;9.882;2023-04-03T09:06:11;4.03;;;1.70;;
18210;SDS011;9231;48.852;9.882;2023-04-03T09:08:40;3.53;;;1.67;;
18210;SDS011;9231;48.852;9.882;2023-04-03T09:11:12;3.37;;;1.80;;
18210;SDS011;9231;48.852;9.882;2023-04-03T09:13:43;4.23;;;1.90;;
18210;SDS011;9231;48.852;9.882;2023-04-03T09:16:17;3.87;;;1.80;;
18210;SDS011;9231;48.852;9.882;2023-04-03T09:18:48;2.40;;;1.60;;
18210;SDS011;9231;48.852;9.882;2023-04-03T09:21:19;2.87;;;1.40;;
18210;SDS011;9231;48.852;9.882;2023-04-03T09:23:47;2.43;;;1.57;;
18210;SDS011;9231;48.852;9.882;2023-04-03T09:26:19;3.00;;;1.50;;
18210;SDS011;9231;48.852;9.882;2023-04-03T09:28:49;4.07;;;1.60;;
18210;SDS011;9231;48.852;9.882;2023-04-03T09:31:19;4.10;;;1.70;;
18210;SDS011;9231;48.852;9.882;2023-04-03T09:33:46;2.03;;;1.47;;
18210;SDS011;9231;48.852;9.882;2023-04-03T09:36:12;2.73;;;1.60;;
18210;SDS011;9231;48.852;9.882;2023-04-03T09:38:42;2.97;;;1.30;;
18210;SDS011;9231;48.852;9.882;2023-04-03T09:41:14;2.63;;;1.63;;
18210;SDS011;9231;48.852;9.882;2023-04-03T09:43:43;3.17;;;1.40;;
18210;SDS011;9231;48.852;9.882;2023-04-03T09:46:19;6.13;;;1.40;;
18210;SDS011;9231;48.852;9.882;2023-04-03T09:48:51;4.63;;;1.73;;
18210;SDS011;9231;48.852;9.882;2023-04-03T09:51:17;2.37;;;1.30;;
18210;SDS011;9231;48.852;9.882;2023-04-03T09:53:44;2.03;;;1.10;;
18210;SDS011;9231;48.852;9.882;2023-04-03T09:56:18;3.47;;;1.20;;
18210;SDS011;9231;48.852;9.882;2023-04-03T09:58:48;2.03;;;1.20;;
18210;SDS011;9231;48.852;9.882;2023-04-03T10:01:26;4.17;;;1.13;;
18210;SDS011;9231;48.852;9.882;2023-04-03T10:04:03;2.27;;;1.10;;
18210;SDS011;9231;48.852;9.882;2023-04-03T10:06:31;2.17;;;1.50;;
18210;SDS011;9231;48.852;9.882;2023-04-03T10:08:58;2.63;;;1.23;;
18210;SDS011;9231;48.852;9.882;2023-04-03T10:11:26;2.27;;;1.10;;
18210;SDS011;9231;48.852;9.882;2023-04-03T10:13:55;2.73;;;0.87;;
18210;SDS011;9231;48.852;9.882;2023-04-03T10:16:25;1.60;;;1.03;;
18210;SDS011;9231;48.852;9.882;2023-04-03T10:18:55;2.10;;;1.23;;
18210;SDS011;9231;48.852;9.882;2023-04-03T10:21:29;1.73;;;1.17;;
18210;SDS011;9231;48.852;9.882;2023-04-03T10:24:02;2.40;;;1.40;;
18210;SDS011;9231;48.852;9.882;2023-04-03T10:26:32;2.10;;;1.23;;
18210;SDS011;9231;48.852;9.882;2023-04-03T10:29:05;4.20;;;1.40;;
18210;SDS011;9231;48.852;9.882;2023-04-03T10:31:35;2.67;;;1.20;;
18210;SDS011;9231;48.852;9.882;2023-04-03T10:34:04;2.50;;;1.40;;
18210;SDS011;9231;48.852;9.882;2023-04-03T10:36:36;4.70;;;1.47;;
18210;SDS011;9231;48.852;9.882;2023-04-03T10:39:08;2.37;;;1.30;;
18210;SDS011;9231;48.852;9.882;2023-04-03T10:41:42;1.90;;;1.17;;
18210;SDS011;9231;48.852;9.882;2023-04-03T10:44:15;3.90;;;1.57;;
18210;SDS011;9231;48.852;9.882;2023-04-03T10:46:47;1.37;;;0.93;;
18210;SDS011;9231;48.852;9.882;2023-04-03T10:49:21;3.53;;;1.10;;
18210;SDS011;9231;48.852;9.882;2023-04-03T10:51:53;4.10;;;1.20;;
18210;SDS011;9231;48.852;9.882;2023-04-03T10:54:24;3.23;;;1.10;;
18210;SDS011;9231;48.852;9.882;2023-04-03T10:56:53;4.00;;;1.40;;
18210;SDS011;9231;48.852;9.882;2023-04-03T10:59:23;1.50;;;1.10;;
18210;SDS011;9231;48.852;9.882;2023-04-03T11:01:52;2.10;;;1.40;;
18210;SDS011;9231;48.852;9.882;2023-04-03T11:04:20;5.53;;;1.53;;
18210;SDS011;9231;48.852;9.882;2023-04-03T11:06:49;2.43;;;1.13;;
18210;SDS011;9231;48.852;9.882;2023-04-03T11:09:19;2.07;;;1.10;;
18210;SDS011;9231;48.852;9.882;2023-04-03T11:11:47;4.67;;;1.37;;
18210;SDS011;9231;48.852;9.882;2023-04-03T11:14:25;2.70;;;1.30;;
18210;SDS011;9231;48.852;9.882;2023-04-03T11:16:57;1.63;;;1.27;;
18210;SDS011;9231;48.852;9.882;2023-04-03T11:19:29;2.03;;;1.07;;
18210;SDS011;9231;48.852;9.882;2023-04-03T11:22:01;2.53;;;1.30;;
18210;SDS011;9231;48.852;9.882;2023-04-03T11:24:31;2.40;;;1.30;;
18210;SDS011;9231;48.852;9.882;2023-04-03T11:26:58;2.70;;;1.30;;
18210;SDS011;9231;48.852;9.882;2023-04-03T11:29:26;2.30;;;1.20;;
18210;SDS011;9231;48.852;9.882;2023-04-03T11:32:04;2.80;;;1.20;;
18210;SDS011;9231;48.852;9.882;2023-04-03T11:34:34;1.67;;;1.40;;
18210;SDS011;9231;48.852;9.882;2023-04-03T11:37:05;2.90;;;1.53;;
18210;SDS011;9231;48.852;9.882;2023-04-03T11:39:37;3.27;;;1.10;;
18210;SDS011;9231;48.852;9.882;2023-04-03T11:42:14;3.23;;;1.40;;
18210;SDS011;9231;48.852;9.882;2023-04-03T11:44:41;1.97;;;1.10;;
18210;SDS011;9231;48.852;9.882;2023-04-03T11:47:10;3.27;;;1.20;;
18210;SDS011;9231;48.852;9.882;2023-04-03T11:58:10;1.67;;;1.03;;
18210;SDS011;9231;48.852;9.882;2023-04-03T12:00:57;2.43;;;1.50;;
18210;SDS011;9231;48.852;9.882;2023-04-03T12:03:55;3.50;;;1.13;;
18210;SDS011;9231;48.852;9.882;2023-04-03T12:09:29;2.13;;;1.10;;
18210;SDS011;9231;48.852;9.882;2023-04-03T12:11:56;2.10;;;1.20;;
18210;SDS011;9231;48.852;9.882;2023-04-03T12:14:24;2.13;;;1.10;;
18210;SDS011;9231;48.852;9.882;2023-04-03T12:16:52;3.07;;;1.00;;
18210;SDS011;9231;48.852;9.882;2023-04-03T12:19:36;1.73;;;1.40;;
18210;SDS011;9231;48.852;9.882;2023-04-03T12:24:45;2.33;;;1.53;;
18210;SDS011;9231;48.852;9.882;2023-04-03T12:27:21;1.60;;;1.03;;
18210;SDS011;9231;48.852;9.882;2023-04-03T12:29:52;2.67;;;1.60;;
18210;SDS011;9231;48.852;9.882;2023-04-03T12:32:24;1.77;;;1.37;;
18210;SDS011;9231;48.852;9.882;2023-04-03T12:35:01;2.93;;;1.77;;
18210;SDS011;9231;48.852;9.882;2023-04-03T12:37:44;3.97;;;1.67;;
18210;SDS011;9231;48.852;9.882;2023-04-03T12:40:16;2.97;;;1.10;;
18210;SDS011;9231;48.852;9.882;2023-04-03T12:42:54;3.70;;;1.20;;
18210;SDS011;9231;48.852;9.882;2023-04-03T12:45:24;2.87;;;1.40;;
18210;SDS011;9231;48.852;9.882;2023-04-03T12:47:51;3.27;;;1.30;;
18210;SDS011;9231;48.852;9.882;2023-04-03T12:50:22;2.47;;;1.40;;
18210;SDS011;9231;48.852;9.882;2023-04-03T12:52:51;1.87;;;1.27;;
18210;SDS011;9231;48.852;9.882;2023-04-03T12:55:20;2.93;;;1.13;;
18210;SDS011;9231;48.852;9.882;2023-04-03T12:57:47;3.27;;;1.30;;
18210;SDS011;9231;48.852;9.882;2023-04-03T13:00:21;2.77;;;1.60;;
18210;SDS011;9231;48.852;9.882;2023-04-03T13:02:47;1.97;;;1.00;;
18210;SDS011;9231;48.852;9.882;2023-04-03T13:05:15;3.03;;;1.10;;
18210;SDS011;9231;48.852;9.882;2023-04-03T13:07:44;1.90;;;1.33;;
18210;SDS011;9231;48.852;9.882;2023-04-03T13:10:16;3.33;;;1.40;;
18210;SDS011;9231;48.852;9.882;2023-04-03T13:12:47;2.43;;;1.30;;
18210;SDS011;9231;48.852;9.882;2023-04-03T13:15:16;2.93;;;1.40;;
18210;SDS011;9231;48.852;9.882;2023-04-03T13:17:44;1.80;;;1.20;;
18210;SDS011;9231;48.852;9.882;2023-04-03T13:20:12;2.83;;;1.17;;
18210;SDS011;9231;48.852;9.882;2023-04-03T13:22:39;3.17;;;1.70;;
18210;SDS011;9231;48.852;9.882;2023-04-03T13:25:11;4.63;;;1.43;;
18210;SDS011;9231;48.852;9.882;2023-04-03T13:27:39;1.77;;;1.47;;
18210;SDS011;9231;48.852;9.882;2023-04-03T13:30:17;3.23;;;1.60;;
18210;SDS011;9231;48.852;9.882;2023-04-03T13:32:44;3.23;;;1.57;;
18210;SDS011;9231;48.852;9.882;2023-04-03T13:35:25;2.13;;;1.20;;
18210;SDS011;9231;48.852;9.882;2023-04-03T13:37:53;2.37;;;1.30;;
18210;SDS011;9231;48.852;9.882;2023-04-03T13:40:21;2.03;;;1.20;;
18210;SDS011;9231;48.852;9.882;2023-04-03T13:42:58;3.93;;;1.80;;
18210;SDS011;9231;48.852;9.882;2023-04-03T13:45:26;3.97;;;1.20;;
18210;SDS011;9231;48.852;9.882;2023-04-03T13:48:05;3.43;;;1.33;;
18210;SDS011;9231;48.852;9.882;2023-04-03T13:50:32;1.87;;;1.30;;
18210;SDS011;9231;48.852;9.882;2023-04-03T13:52:59;2.67;;;1.10;;
18210;SDS011;9231;48.852;9.882;2023-04-03T13:55:29;2.77;;;1.13;;
18210;SDS011;9231;48.852;9.882;2023-04-03T13:57:57;2.03;;;1.27;;
18210;SDS011;9231;48.852;9.882;2023-04-03T14:00:29;2.17;;;1.20;;
18210;SDS011;9231;48.852;9.882;2023-04-03T14:02:57;4.57;;;1.57;;
18210;SDS011;9231;48.852;9.882;2023-04-03T14:05:23;2.57;;;1.60;;
18210;SDS011;9231;48.852;9.882;2023-04-03T14:07:51;2.73;;;1.80;;
18210;SDS011;9231;48.852;9.882;2023-04-03T14:10:18;2.20;;;1.10;;
18210;SDS011;9231;48.852;9.882;2023-04-03T14:12:46;1.93;;;1.10;;
18210;SDS011;9231;48.852;9.882;2023-04-03T14:15:16;1.50;;;1.10;;
18210;SDS011;9231;48.852;9.882;2023-04-03T14:17:44;1.87;;;1.20;;
18210;SDS011;9231;48.852;9.882;2023-04-03T14:20:13;2.50;;;1.27;;
18210;SDS011;9231;48.852;9.882;2023-04-03T14:22:42;3.70;;;1.00;;
18210;SDS011;9231;48.852;9.882;2023-04-03T14:25:08;2.10;;;1.00;;
18210;SDS011;9231;48.852;9.882;2023-04-03T14:27:36;2.73;;;1.30;;
18210;SDS011;9231;48.852;9.882;2023-04-03T14:30:08;1.83;;;0.97;;
18210;SDS011;9231;48.852;9.882;2023-04-03T14:32:35;2.53;;;1.23;;
18210;SDS011;9231;48.852;9.882;2023-04-03T14:35:02;3.73;;;1.20;;
18210;SDS011;9231;48.852;9.882;2023-04-03T14:37:29;1.87;;;1.03;;
18210;SDS011;9231;48.852;9.882;2023-04-03T14:39:57;2.50;;;1.23;;
18210;SDS011;9231;48.852;9.882;2023-04-03T14:42:25;2.27;;;1.30;;
18210;SDS011;9231;48.852;9.882;2023-04-03T14:44:52;1.90;;;1.20;;
18210;SDS011;9231;48.852;9.882;2023-04-03T14:47:23;2.90;;;1.33;;
18210;SDS011;9231;48.852;9.882;2023-04-03T14:49:52;2.40;;;1.20;;
18210;SDS011;9231;48.852;9.882;2023-04-03T14:52:20;2.53;;;1.40;;
18210;SDS011;9231;48.852;9.882;2023-04-03T14:54:47;3.50;;;1.20;;
18210;SDS011;9231;48.852;9.882;2023-04-03T14:57:14;3.30;;;1.20;;
18210;SDS011;9231;48.852;9.882;2023-04-03T14:59:41;2.40;;;1.20;;
18210;SDS011;9231;48.852;9.882;2023-04-03T15:14:49;1.63;;;1.10;;
18210;SDS011;9231;48.852;9.882;2023-04-03T15:17:29;4.33;;;1.20;;
18210;SDS011;9231;48.852;9.882;2023-04-03T15:20:09;2.63;;;1.20;;
18210;SDS011;9231;48.852;9.882;2023-04-03T15:23:03;1.40;;;0.90;;
18210;SDS011;9231;48.852;9.882;2023-04-03T15:25:47;1.73;;;1.10;;
18210;SDS011;9231;48.852;9.882;2023-04-03T15:28:52;2.20;;;1.07;;
18210;SDS011;9231;48.852;9.882;2023-04-03T15:31:35;1.97;;;1.27;;
18210;SDS011;9231;48.852;9.882;2023-04-03T15:43:47;2.70;;;1.23;;
18210;SDS011;9231;48.852;9.882;2023-04-03T15:49:33;2.20;;;1.37;;
18210;SDS011;9231;48.852;9.882;2023-04-03T15:52:13;1.80;;;1.00;;